sensor_id;sensor_type;location;lat;lon;timestamp;temperature;humidity
8248;DHT22;4164;49.844;8.830;2023-06-26T00:00:45;20.10;1.00
8248;DHT22;4164;49.844;8.830;2023-06-26T00:03:12;20.10;1.00
8248;DHT22;4164;49.844;8.830;2023-06-26T00:05:43;20.10;1.00
8248;DHT22;4164;49.844;8.830;2023-06-26T00:08:08;20.00;83.40
8248;DHT22;4164;49.844;8.830;2023-06-26T00:10:34;20.00;1.00
8248;DHT22;4164;49.844;8.830;2023-06-26T00:13:00;20.00;1.00
8248;DHT22;4164;49.844;8.830;2023-06-26T00:15:26;20.00;54.90
8248;DHT22;4164;49.844;8.830;2023-06-26T00:17:51;19.90;99.90
8248;DHT22;4164;49.844;8.830;2023-06-26T00:20:17;19.90;99.90
8248;DHT22;4164;49.844;8.830;2023-06-26T00:22:44;19.90;99.90
8248;DHT22;4164;49.844;8.830;2023-06-26T00:25:10;19.90;99.90
8248;DHT22;4164;49.844;8.830;2023-06-26T00:27:36;19.90;99.90
8248;DHT22;4164;49.844;8.830;2023-06-26T00:30:01;19.70;99.90
8248;DHT22;4164;49.844;8.830;2023-06-26T00:32:27;19.60;99.90
8248;DHT22;4164;49.844;8.830;2023-06-26T00:34:52;19.60;99.90
8248;DHT22;4164;49.844;8.830;2023-06-26T00:37:18;19.70;99.90
8248;DHT22;4164;49.844;8.830;2023-06-26T00:39:44;19.70;99.90
8248;DHT22;4164;49.844;8.830;2023-06-26T00:42:09;19.50;99.90
8248;DHT22;4164;49.844;8.830;2023-06-26T00:44:35;19.40;99.90
8248;DHT22;4164;49.844;8.830;2023-06-26T00:47:01;19.50;99.90
8248;DHT22;4164;49.844;8.830;2023-06-26T00:49:27;19.50;99.90
8248;DHT22;4164;49.844;8.830;2023-06-26T00:51:53;19.40;99.90
8248;DHT22;4164;49.844;8.830;2023-06-26T00:54:19;19.30;99.90
8248;DHT22;4164;49.844;8.830;2023-06-26T00:56:46;19.40;99.90
8248;DHT22;4164;49.844;8.830;2023-06-26T00:59:15;19.40;99.90
8248;DHT22;4164;49.844;8.830;2023-06-26T01:01:40;19.40;99.90
8248;DHT22;4164;49.844;8.830;2023-06-26T01:04:06;19.40;99.90
8248;DHT22;4164;49.844;8.830;2023-06-26T01:06:32;19.30;99.90
8248;DHT22;4164;49.844;8.830;2023-06-26T01:09:01;19.30;99.90
8248;DHT22;4164;49.844;8.830;2023-06-26T01:11:26;19.30;1.00
8248;DHT22;4164;49.844;8.830;2023-06-26T01:13:54;19.30;99.90
8248;DHT22;4164;49.844;8.830;2023-06-26T01:16:21;19.20;99.90
8248;DHT22;4164;49.844;8.830;2023-06-26T01:18:48;19.20;99.90
8248;DHT22;4164;49.844;8.830;2023-06-26T01:21:14;19.20;99.90
8248;DHT22;4164;49.844;8.830;2023-06-26T01:26:23;19.10;1.00
8248;DHT22;4164;49.844;8.830;2023-06-26T01:28:50;19.00;1.00
8248;DHT22;4164;49.844;8.830;2023-06-26T01:31:17;18.90;1.00
8248;DHT22;4164;49.844;8.830;2023-06-26T01:33:43;19.00;1.00
8248;DHT22;4164;49.844;8.830;2023-06-26T01:36:10;18.90;1.00
8248;DHT22;4164;49.844;8.830;2023-06-26T01:38:36;18.90;1.00
8248;DHT22;4164;49.844;8.830;2023-06-26T01:41:02;18.90;95.30
8248;DHT22;4164;49.844;8.830;2023-06-26T01:49:47;18.80;1.00
8248;DHT22;4164;49.844;8.830;2023-06-26T01:52:22;18.80;1.00
8248;DHT22;4164;49.844;8.830;2023-06-26T01:55:17;18.90;1.00
8248;DHT22;4164;49.844;8.830;2023-06-26T01:57:45;18.80;1.00
8248;DHT22;4164;49.844;8.830;2023-06-26T02:00:16;18.70;1.00
8248;DHT22;4164;49.844;8.830;2023-06-26T02:02:44;18.70;1.00
8248;DHT22;4164;49.844;8.830;2023-06-26T02:05:09;18.60;1.00
8248;DHT22;4164;49.844;8.830;2023-06-26T02:07:35;18.70;1.00
8248;DHT22;4164;49.844;8.830;2023-06-26T02:10:02;18.70;1.00
8248;DHT22;4164;49.844;8.830;2023-06-26T02:12:28;18.60;99.90
8248;DHT22;4164;49.844;8.830;2023-06-26T02:14:53;18.70;99.90
8248;DHT22;4164;49.844;8.830;2023-06-26T02:17:19;18.70;99.90
8248;DHT22;4164;49.844;8.830;2023-06-26T02:19:44;18.70;1.00
8248;DHT22;4164;49.844;8.830;2023-06-26T02:22:16;18.60;99.90
8248;DHT22;4164;49.844;8.830;2023-06-26T02:24:45;18.60;99.90
8248;DHT22;4164;49.844;8.830;2023-06-26T02:27:10;18.50;22.60
8248;DHT22;4164;49.844;8.830;2023-06-26T02:29:36;18.50;1.00
8248;DHT22;4164;49.844;8.830;2023-06-26T02:32:02;18.50;14.40
8248;DHT22;4164;49.844;8.830;2023-06-26T02:34:27;18.60;99.90
8248;DHT22;4164;49.844;8.830;2023-06-26T02:36:53;18.40;99.90
8248;DHT22;4164;49.844;8.830;2023-06-26T02:39:22;18.20;99.90
8248;DHT22;4164;49.844;8.830;2023-06-26T02:41:48;18.10;16.50
8248;DHT22;4164;49.844;8.830;2023-06-26T02:44:13;18.20;1.00
8248;DHT22;4164;49.844;8.830;2023-06-26T02:46:40;18.10;99.90
8248;DHT22;4164;49.844;8.830;2023-06-26T02:49:08;17.90;13.60
8248;DHT22;4164;49.844;8.830;2023-06-26T02:51:34;18.20;30.50
8248;DHT22;4164;49.844;8.830;2023-06-26T02:54:00;17.70;99.90
8248;DHT22;4164;49.844;8.830;2023-06-26T02:56:26;17.70;99.90
8248;DHT22;4164;49.844;8.830;2023-06-26T02:58:55;17.70;1.00
8248;DHT22;4164;49.844;8.830;2023-06-26T03:01:21;17.60;1.00
8248;DHT22;4164;49.844;8.830;2023-06-26T03:03:47;17.60;99.90
8248;DHT22;4164;49.844;8.830;2023-06-26T03:06:13;17.60;1.00
8248;DHT22;4164;49.844;8.830;2023-06-26T03:08:39;17.70;1.00
8248;DHT22;4164;49.844;8.830;2023-06-26T03:11:06;17.70;99.90
8248;DHT22;4164;49.844;8.830;2023-06-26T03:13:33;17.70;99.90
8248;DHT22;4164;49.844;8.830;2023-06-26T03:15:59;17.80;99.90
8248;DHT22;4164;49.844;8.830;2023-06-26T03:18:24;17.80;1.00
8248;DHT22;4164;49.844;8.830;2023-06-26T03:20:50;17.80;99.90
8248;DHT22;4164;49.844;8.830;2023-06-26T03:23:16;17.70;1.00
8248;DHT22;4164;49.844;8.830;2023-06-26T03:25:41;17.70;1.00
8248;DHT22;4164;49.844;8.830;2023-06-26T03:28:07;17.70;1.00
8248;DHT22;4164;49.844;8.830;2023-06-26T03:30:32;17.50;99.90
8248;DHT22;4164;49.844;8.830;2023-06-26T03:32:58;17.50;1.00
8248;DHT22;4164;49.844;8.830;2023-06-26T03:35:23;17.30;99.90
8248;DHT22;4164;49.844;8.830;2023-06-26T03:37:50;17.50;1.00
8248;DHT22;4164;49.844;8.830;2023-06-26T03:40:15;17.30;33.10
8248;DHT22;4164;49.844;8.830;2023-06-26T03:42:42;17.30;99.90
8248;DHT22;4164;49.844;8.830;2023-06-26T03:45:07;17.20;99.90
8248;DHT22;4164;49.844;8.830;2023-06-26T03:47:33;17.00;99.90
8248;DHT22;4164;49.844;8.830;2023-06-26T03:49:59;17.20;1.00
8248;DHT22;4164;49.844;8.830;2023-06-26T03:52:24;17.10;99.90
8248;DHT22;4164;49.844;8.830;2023-06-26T03:54:50;17.40;1.00
8248;DHT22;4164;49.844;8.830;2023-06-26T03:57:15;17.40;88.90
8248;DHT22;4164;49.844;8.830;2023-06-26T03:59:41;17.70;1.00
8248;DHT22;4164;49.844;8.830;2023-06-26T04:02:07;17.60;1.00
8248;DHT22;4164;49.844;8.830;2023-06-26T04:04:32;17.30;1.00
8248;DHT22;4164;49.844;8.830;2023-06-26T04:06:58;17.60;99.90
8248;DHT22;4164;49.844;8.830;2023-06-26T04:09:25;17.80;1.00
8248;DHT22;4164;49.844;8.830;2023-06-26T04:11:50;17.60;99.90
8248;DHT22;4164;49.844;8.830;2023-06-26T04:14:16;17.90;99.90
8248;DHT22;4164;49.844;8.830;2023-06-26T04:16:42;18.20;99.90
8248;DHT22;4164;49.844;8.830;2023-06-26T04:19:07;18.20;2.50
8248;DHT22;4164;49.844;8.830;2023-06-26T04:21:35;18.20;1.00
8248;DHT22;4164;49.844;8.830;2023-06-26T04:24:01;18.10;99.90
8248;DHT22;4164;49.844;8.830;2023-06-26T04:26:26;18.30;99.90
8248;DHT22;4164;49.844;8.830;2023-06-26T04:28:53;18.20;99.90
8248;DHT22;4164;49.844;8.830;2023-06-26T04:31:19;18.40;1.00
8248;DHT22;4164;49.844;8.830;2023-06-26T04:33:44;18.40;1.00
8248;DHT22;4164;49.844;8.830;2023-06-26T04:36:10;18.50;99.90
8248;DHT22;4164;49.844;8.830;2023-06-26T04:38:36;18.70;99.90
8248;DHT22;4164;49.844;8.830;2023-06-26T04:41:02;18.40;99.90
8248;DHT22;4164;49.844;8.830;2023-06-26T04:43:28;18.30;1.00
8248;DHT22;4164;49.844;8.830;2023-06-26T04:45:54;18.50;1.00
8248;DHT22;4164;49.844;8.830;2023-06-26T04:48:19;18.70;15.20
8248;DHT22;4164;49.844;8.830;2023-06-26T04:50:46;18.80;1.00
8248;DHT22;4164;49.844;8.830;2023-06-26T04:53:22;18.90;99.90
8248;DHT22;4164;49.844;8.830;2023-06-26T04:55:49;19.00;1.00
8248;DHT22;4164;49.844;8.830;2023-06-26T04:58:14;19.00;99.90
8248;DHT22;4164;49.844;8.830;2023-06-26T05:00:40;19.10;1.00
8248;DHT22;4164;49.844;8.830;2023-06-26T05:03:11;19.20;1.00
8248;DHT22;4164;49.844;8.830;2023-06-26T05:05:37;19.50;99.90
8248;DHT22;4164;49.844;8.830;2023-06-26T05:08:16;19.50;99.90
8248;DHT22;4164;49.844;8.830;2023-06-26T05:10:42;19.50;99.90
8248;DHT22;4164;49.844;8.830;2023-06-26T05:13:08;19.60;99.90
8248;DHT22;4164;49.844;8.830;2023-06-26T05:15:33;19.60;1.00
8248;DHT22;4164;49.844;8.830;2023-06-26T05:17:59;19.90;99.90
8248;DHT22;4164;49.844;8.830;2023-06-26T05:20:24;20.00;99.90
8248;DHT22;4164;49.844;8.830;2023-06-26T05:22:50;20.10;1.00
8248;DHT22;4164;49.844;8.830;2023-06-26T05:25:16;20.10;75.80
8248;DHT22;4164;49.844;8.830;2023-06-26T05:27:43;20.30;99.90
8248;DHT22;4164;49.844;8.830;2023-06-26T05:30:09;20.30;1.00
8248;DHT22;4164;49.844;8.830;2023-06-26T05:32:37;20.50;1.00
8248;DHT22;4164;49.844;8.830;2023-06-26T05:35:03;20.50;1.00
8248;DHT22;4164;49.844;8.830;2023-06-26T05:37:31;21.10;99.90
8248;DHT22;4164;49.844;8.830;2023-06-26T05:39:57;21.20;1.00
8248;DHT22;4164;49.844;8.830;2023-06-26T05:42:23;21.10;1.00
8248;DHT22;4164;49.844;8.830;2023-06-26T05:44:48;21.10;1.00
8248;DHT22;4164;49.844;8.830;2023-06-26T05:47:14;21.30;99.90
8248;DHT22;4164;49.844;8.830;2023-06-26T05:49:39;21.40;99.90
8248;DHT22;4164;49.844;8.830;2023-06-26T05:52:05;21.80;99.90
8248;DHT22;4164;49.844;8.830;2023-06-26T05:54:31;22.00;99.90
8248;DHT22;4164;49.844;8.830;2023-06-26T05:56:58;22.20;99.90
8248;DHT22;4164;49.844;8.830;2023-06-26T05:59:25;22.30;99.90
8248;DHT22;4164;49.844;8.830;2023-06-26T06:01:52;22.30;99.90
8248;DHT22;4164;49.844;8.830;2023-06-26T06:04:17;22.50;99.90
8248;DHT22;4164;49.844;8.830;2023-06-26T06:06:43;22.50;99.90
8248;DHT22;4164;49.844;8.830;2023-06-26T06:09:09;22.60;1.00
8248;DHT22;4164;49.844;8.830;2023-06-26T06:11:34;22.80;99.90
8248;DHT22;4164;49.844;8.830;2023-06-26T06:14:00;22.80;1.00
8248;DHT22;4164;49.844;8.830;2023-06-26T06:16:26;23.00;1.00
8248;DHT22;4164;49.844;8.830;2023-06-26T06:18:53;23.10;99.90
8248;DHT22;4164;49.844;8.830;2023-06-26T06:21:19;23.30;99.90
8248;DHT22;4164;49.844;8.830;2023-06-26T06:23:44;23.50;63.40
8248;DHT22;4164;49.844;8.830;2023-06-26T06:26:11;23.50;17.40
8248;DHT22;4164;49.844;8.830;2023-06-26T06:28:36;23.70;1.00
8248;DHT22;4164;49.844;8.830;2023-06-26T06:31:02;23.80;1.00
8248;DHT22;4164;49.844;8.830;2023-06-26T06:33:28;24.00;1.00
8248;DHT22;4164;49.844;8.830;2023-06-26T06:35:53;24.00;1.00
8248;DHT22;4164;49.844;8.830;2023-06-26T06:38:19;24.30;1.00
8248;DHT22;4164;49.844;8.830;2023-06-26T06:40:44;24.30;1.00
8248;DHT22;4164;49.844;8.830;2023-06-26T06:43:09;24.50;1.00
8248;DHT22;4164;49.844;8.830;2023-06-26T06:45:35;24.60;1.00
8248;DHT22;4164;49.844;8.830;2023-06-26T06:48:03;24.60;1.00
8248;DHT22;4164;49.844;8.830;2023-06-26T06:50:28;24.80;1.00
8248;DHT22;4164;49.844;8.830;2023-06-26T06:52:54;24.80;1.00
8248;DHT22;4164;49.844;8.830;2023-06-26T06:55:19;24.90;99.90
8248;DHT22;4164;49.844;8.830;2023-06-26T06:57:45;25.00;99.90
8248;DHT22;4164;49.844;8.830;2023-06-26T07:00:12;25.30;99.90
8248;DHT22;4164;49.844;8.830;2023-06-26T07:02:41;25.50;99.90
8248;DHT22;4164;49.844;8.830;2023-06-26T07:05:08;25.60;99.90
8248;DHT22;4164;49.844;8.830;2023-06-26T07:07:35;25.80;99.90
8248;DHT22;4164;49.844;8.830;2023-06-26T07:10:04;25.90;99.90
8248;DHT22;4164;49.844;8.830;2023-06-26T07:12:31;26.10;99.90
8248;DHT22;4164;49.844;8.830;2023-06-26T07:14:57;26.10;99.90
8248;DHT22;4164;49.844;8.830;2023-06-26T07:17:23;26.30;99.90
8248;DHT22;4164;49.844;8.830;2023-06-26T07:19:49;26.50;99.90
8248;DHT22;4164;49.844;8.830;2023-06-26T07:22:15;26.30;99.90
8248;DHT22;4164;49.844;8.830;2023-06-26T07:24:41;26.40;99.90
8248;DHT22;4164;49.844;8.830;2023-06-26T07:27:07;26.60;99.90
8248;DHT22;4164;49.844;8.830;2023-06-26T07:29:32;26.80;99.90
8248;DHT22;4164;49.844;8.830;2023-06-26T07:31:58;27.00;99.90
8248;DHT22;4164;49.844;8.830;2023-06-26T07:34:24;27.20;99.90
8248;DHT22;4164;49.844;8.830;2023-06-26T07:36:49;27.30;99.90
8248;DHT22;4164;49.844;8.830;2023-06-26T07:39:15;27.80;99.90
8248;DHT22;4164;49.844;8.830;2023-06-26T07:41:40;27.60;99.90
8248;DHT22;4164;49.844;8.830;2023-06-26T07:44:06;27.60;99.90
8248;DHT22;4164;49.844;8.830;2023-06-26T07:46:32;27.80;99.90
8248;DHT22;4164;49.844;8.830;2023-06-26T07:48:57;27.80;99.90
8248;DHT22;4164;49.844;8.830;2023-06-26T07:51:23;28.00;99.90
8248;DHT22;4164;49.844;8.830;2023-06-26T07:53:49;27.90;99.90
8248;DHT22;4164;49.844;8.830;2023-06-26T07:56:14;27.40;99.90
8248;DHT22;4164;49.844;8.830;2023-06-26T07:58:40;27.70;99.90
8248;DHT22;4164;49.844;8.830;2023-06-26T08:01:05;27.80;99.90
8248;DHT22;4164;49.844;8.830;2023-06-26T08:03:31;27.90;99.90
8248;DHT22;4164;49.844;8.830;2023-06-26T08:05:56;28.10;99.90
8248;DHT22;4164;49.844;8.830;2023-06-26T08:08:25;27.90;99.90
8248;DHT22;4164;49.844;8.830;2023-06-26T08:10:50;27.70;99.90
8248;DHT22;4164;49.844;8.830;2023-06-26T08:13:16;27.70;99.90
8248;DHT22;4164;49.844;8.830;2023-06-26T08:15:42;27.50;93.90
8248;DHT22;4164;49.844;8.830;2023-06-26T08:18:07;27.50;91.60
8248;DHT22;4164;49.844;8.830;2023-06-26T08:20:33;27.50;90.30
8248;DHT22;4164;49.844;8.830;2023-06-26T08:23:01;27.70;88.50
8248;DHT22;4164;49.844;8.830;2023-06-26T08:25:29;27.80;82.50
8248;DHT22;4164;49.844;8.830;2023-06-26T08:27:55;27.70;74.20
8248;DHT22;4164;49.844;8.830;2023-06-26T08:30:21;27.70;71.30
8248;DHT22;4164;49.844;8.830;2023-06-26T08:32:47;27.30;69.80
8248;DHT22;4164;49.844;8.830;2023-06-26T08:35:12;27.30;66.50
8248;DHT22;4164;49.844;8.830;2023-06-26T08:37:38;27.40;63.10
8248;DHT22;4164;49.844;8.830;2023-06-26T08:40:04;27.20;62.50
8248;DHT22;4164;49.844;8.830;2023-06-26T08:42:30;27.40;64.10
8248;DHT22;4164;49.844;8.830;2023-06-26T08:44:55;27.60;64.40
8248;DHT22;4164;49.844;8.830;2023-06-26T08:47:21;27.90;66.10
8248;DHT22;4164;49.844;8.830;2023-06-26T08:52:33;27.60;60.60
8248;DHT22;4164;49.844;8.830;2023-06-26T08:55:02;27.60;62.90
8248;DHT22;4164;49.844;8.830;2023-06-26T08:57:30;27.90;66.80
8248;DHT22;4164;49.844;8.830;2023-06-26T08:59:57;27.70;61.10
8248;DHT22;4164;49.844;8.830;2023-06-26T09:02:23;27.30;58.30
8248;DHT22;4164;49.844;8.830;2023-06-26T09:04:50;27.10;59.70
8248;DHT22;4164;49.844;8.830;2023-06-26T09:07:16;27.30;59.50
8248;DHT22;4164;49.844;8.830;2023-06-26T09:09:41;27.70;61.10
8248;DHT22;4164;49.844;8.830;2023-06-26T09:12:08;27.60;58.10
8248;DHT22;4164;49.844;8.830;2023-06-26T09:14:36;27.40;57.50
8248;DHT22;4164;49.844;8.830;2023-06-26T09:17:02;27.40;56.70
8248;DHT22;4164;49.844;8.830;2023-06-26T09:19:27;27.50;56.30
8248;DHT22;4164;49.844;8.830;2023-06-26T09:21:54;27.70;54.30
8248;DHT22;4164;49.844;8.830;2023-06-26T09:24:21;27.90;51.20
8248;DHT22;4164;49.844;8.830;2023-06-26T09:26:47;27.80;52.60
8248;DHT22;4164;49.844;8.830;2023-06-26T09:29:14;28.10;51.30
8248;DHT22;4164;49.844;8.830;2023-06-26T09:31:40;28.10;51.00
8248;DHT22;4164;49.844;8.830;2023-06-26T09:34:06;28.00;50.50
8248;DHT22;4164;49.844;8.830;2023-06-26T09:36:33;28.30;49.10
8248;DHT22;4164;49.844;8.830;2023-06-26T09:39:00;28.00;45.00
8248;DHT22;4164;49.844;8.830;2023-06-26T09:41:26;28.10;45.30
8248;DHT22;4164;49.844;8.830;2023-06-26T09:43:51;28.40;47.70
8248;DHT22;4164;49.844;8.830;2023-06-26T09:46:24;28.10;44.20
8248;DHT22;4164;49.844;8.830;2023-06-26T09:48:51;28.20;47.30
8248;DHT22;4164;49.844;8.830;2023-06-26T09:51:22;28.50;47.80
8248;DHT22;4164;49.844;8.830;2023-06-26T09:53:48;28.40;48.40
8248;DHT22;4164;49.844;8.830;2023-06-26T09:56:17;28.50;45.90
8248;DHT22;4164;49.844;8.830;2023-06-26T09:58:44;28.80;48.20
8248;DHT22;4164;49.844;8.830;2023-06-26T10:01:09;28.80;45.40
8248;DHT22;4164;49.844;8.830;2023-06-26T10:03:35;29.20;47.40
8248;DHT22;4164;49.844;8.830;2023-06-26T10:06:02;29.50;45.10
8248;DHT22;4164;49.844;8.830;2023-06-26T10:08:28;29.30;40.90
8248;DHT22;4164;49.844;8.830;2023-06-26T10:10:56;29.50;38.30
8248;DHT22;4164;49.844;8.830;2023-06-26T10:13:27;29.60;38.00
8248;DHT22;4164;49.844;8.830;2023-06-26T10:15:53;29.30;32.30
8248;DHT22;4164;49.844;8.830;2023-06-26T10:18:21;29.20;33.30
8248;DHT22;4164;49.844;8.830;2023-06-26T10:20:49;29.40;47.60
8248;DHT22;4164;49.844;8.830;2023-06-26T10:23:19;29.90;34.60
8248;DHT22;4164;49.844;8.830;2023-06-26T10:25:51;29.90;32.90
8248;DHT22;4164;49.844;8.830;2023-06-26T10:28:18;29.30;30.00
8248;DHT22;4164;49.844;8.830;2023-06-26T10:30:46;29.50;32.00
8248;DHT22;4164;49.844;8.830;2023-06-26T10:33:13;30.20;33.20
8248;DHT22;4164;49.844;8.830;2023-06-26T10:35:43;29.40;28.20
8248;DHT22;4164;49.844;8.830;2023-06-26T10:38:09;28.70;26.60
8248;DHT22;4164;49.844;8.830;2023-06-26T10:40:43;28.70;39.80
8248;DHT22;4164;49.844;8.830;2023-06-26T10:43:12;28.50;29.20
8248;DHT22;4164;49.844;8.830;2023-06-26T10:45:49;28.10;29.00
8248;DHT22;4164;49.844;8.830;2023-06-26T10:48:20;28.10;29.10
8248;DHT22;4164;49.844;8.830;2023-06-26T10:50:50;28.50;32.20
8248;DHT22;4164;49.844;8.830;2023-06-26T10:56:03;29.30;36.30
8248;DHT22;4164;49.844;8.830;2023-06-26T11:01:20;29.80;36.10
8248;DHT22;4164;49.844;8.830;2023-06-26T11:04:06;30.20;36.10
8248;DHT22;4164;49.844;8.830;2023-06-26T11:06:33;29.40;31.00
8248;DHT22;4164;49.844;8.830;2023-06-26T11:09:10;29.90;35.30
8248;DHT22;4164;49.844;8.830;2023-06-26T11:14:30;30.30;34.00
8248;DHT22;4164;49.844;8.830;2023-06-26T11:16:56;30.80;32.20
8248;DHT22;4164;49.844;8.830;2023-06-26T11:19:25;30.40;29.10
8248;DHT22;4164;49.844;8.830;2023-06-26T11:21:52;30.30;28.30
8248;DHT22;4164;49.844;8.830;2023-06-26T11:24:23;30.00;26.00
8248;DHT22;4164;49.844;8.830;2023-06-26T11:26:49;30.20;26.90
8248;DHT22;4164;49.844;8.830;2023-06-26T11:29:14;30.20;26.50
8248;DHT22;4164;49.844;8.830;2023-06-26T11:31:41;30.50;27.90
8248;DHT22;4164;49.844;8.830;2023-06-26T11:34:12;30.30;34.00
8248;DHT22;4164;49.844;8.830;2023-06-26T11:36:42;30.10;23.80
8248;DHT22;4164;49.844;8.830;2023-06-26T11:39:08;30.30;23.30
8248;DHT22;4164;49.844;8.830;2023-06-26T11:41:38;30.80;23.80
8248;DHT22;4164;49.844;8.830;2023-06-26T11:44:06;31.90;23.70
8248;DHT22;4164;49.844;8.830;2023-06-26T11:46:33;31.80;31.70
8248;DHT22;4164;49.844;8.830;2023-06-26T11:48:59;31.40;17.50
8248;DHT22;4164;49.844;8.830;2023-06-26T11:51:27;31.90;19.40
8248;DHT22;4164;49.844;8.830;2023-06-26T11:53:53;31.00;13.90
8248;DHT22;4164;49.844;8.830;2023-06-26T11:56:19;31.00;24.20
8248;DHT22;4164;49.844;8.830;2023-06-26T11:59:07;32.00;15.60
8248;DHT22;4164;49.844;8.830;2023-06-26T12:01:43;31.70;12.00
8248;DHT22;4164;49.844;8.830;2023-06-26T12:04:15;31.70;21.80
8248;DHT22;4164;49.844;8.830;2023-06-26T12:06:47;31.00;10.90
8248;DHT22;4164;49.844;8.830;2023-06-26T12:09:18;31.30;12.60
8248;DHT22;4164;49.844;8.830;2023-06-26T12:11:45;31.80;12.80
8248;DHT22;4164;49.844;8.830;2023-06-26T12:14:13;31.40;8.10
8248;DHT22;4164;49.844;8.830;2023-06-26T12:16:39;31.40;5.80
8248;DHT22;4164;49.844;8.830;2023-06-26T12:19:07;32.40;6.30
8248;DHT22;4164;49.844;8.830;2023-06-26T12:24:12;32.50;1.00
8248;DHT22;4164;49.844;8.830;2023-06-26T12:26:38;31.40;1.00
8248;DHT22;4164;49.844;8.830;2023-06-26T12:29:12;31.20;1.00
8248;DHT22;4164;49.844;8.830;2023-06-26T12:31:41;31.90;1.00
8248;DHT22;4164;49.844;8.830;2023-06-26T12:34:15;31.50;1.00
8248;DHT22;4164;49.844;8.830;2023-06-26T12:36:48;30.60;1.00
8248;DHT22;4164;49.844;8.830;2023-06-26T12:39:21;29.90;1.00
8248;DHT22;4164;49.844;8.830;2023-06-26T12:41:55;29.70;1.00
8248;DHT22;4164;49.844;8.830;2023-06-26T12:44:23;30.80;1.00
8248;DHT22;4164;49.844;8.830;2023-06-26T12:46:53;32.60;1.00
8248;DHT22;4164;49.844;8.830;2023-06-26T12:49:18;31.50;1.00
8248;DHT22;4164;49.844;8.830;2023-06-26T12:51:44;31.00;1.00
8248;DHT22;4164;49.844;8.830;2023-06-26T12:54:10;31.60;1.00
8248;DHT22;4164;49.844;8.830;2023-06-26T12:56:36;32.20;1.00
8248;DHT22;4164;49.844;8.830;2023-06-26T12:59:01;31.60;1.00
8248;DHT22;4164;49.844;8.830;2023-06-26T13:01:27;32.50;1.00
8248;DHT22;4164;49.844;8.830;2023-06-26T13:03:53;33.10;1.00
8248;DHT22;4164;49.844;8.830;2023-06-26T13:06:19;33.60;1.00
8248;DHT22;4164;49.844;8.830;2023-06-26T13:08:45;32.20;1.00
8248;DHT22;4164;49.844;8.830;2023-06-26T13:11:10;32.90;1.00
8248;DHT22;4164;49.844;8.830;2023-06-26T13:13:36;33.20;1.00
8248;DHT22;4164;49.844;8.830;2023-06-26T13:16:01;32.10;1.00
8248;DHT22;4164;49.844;8.830;2023-06-26T13:18:27;33.00;1.00
8248;DHT22;4164;49.844;8.830;2023-06-26T13:20:53;33.10;1.00
8248;DHT22;4164;49.844;8.830;2023-06-26T13:23:18;32.50;1.00
8248;DHT22;4164;49.844;8.830;2023-06-26T13:25:45;33.00;1.00
8248;DHT22;4164;49.844;8.830;2023-06-26T13:28:10;32.80;1.00
8248;DHT22;4164;49.844;8.830;2023-06-26T13:30:36;32.20;1.00
8248;DHT22;4164;49.844;8.830;2023-06-26T13:33:01;32.80;1.00
8248;DHT22;4164;49.844;8.830;2023-06-26T13:35:27;32.70;1.00
8248;DHT22;4164;49.844;8.830;2023-06-26T13:37:53;32.60;1.00
8248;DHT22;4164;49.844;8.830;2023-06-26T13:40:19;31.50;1.00
8248;DHT22;4164;49.844;8.830;2023-06-26T13:42:44;31.20;1.00
8248;DHT22;4164;49.844;8.830;2023-06-26T13:45:10;31.30;1.00
8248;DHT22;4164;49.844;8.830;2023-06-26T13:47:37;31.60;1.00
8248;DHT22;4164;49.844;8.830;2023-06-26T13:50:09;31.30;1.00
8248;DHT22;4164;49.844;8.830;2023-06-26T13:52:35;31.70;1.00
8248;DHT22;4164;49.844;8.830;2023-06-26T13:55:01;32.40;1.00
8248;DHT22;4164;49.844;8.830;2023-06-26T13:57:31;33.30;1.00
8248;DHT22;4164;49.844;8.830;2023-06-26T13:59:56;31.80;1.00
8248;DHT22;4164;49.844;8.830;2023-06-26T14:02:22;31.20;1.00
8248;DHT22;4164;49.844;8.830;2023-06-26T14:04:47;31.90;1.00
8248;DHT22;4164;49.844;8.830;2023-06-26T14:07:13;30.80;1.00
8248;DHT22;4164;49.844;8.830;2023-06-26T14:09:39;30.80;1.00
8248;DHT22;4164;49.844;8.830;2023-06-26T14:12:06;30.50;1.00
8248;DHT22;4164;49.844;8.830;2023-06-26T14:14:32;30.20;1.00
8248;DHT22;4164;49.844;8.830;2023-06-26T14:16:57;30.50;1.00
8248;DHT22;4164;49.844;8.830;2023-06-26T14:19:24;31.40;1.00
8248;DHT22;4164;49.844;8.830;2023-06-26T14:21:51;31.50;1.00
8248;DHT22;4164;49.844;8.830;2023-06-26T14:24:17;31.60;1.00
8248;DHT22;4164;49.844;8.830;2023-06-26T14:26:45;32.30;1.00
8248;DHT22;4164;49.844;8.830;2023-06-26T14:29:11;32.30;1.00
8248;DHT22;4164;49.844;8.830;2023-06-26T14:31:36;30.90;1.00
8248;DHT22;4164;49.844;8.830;2023-06-26T14:34:02;30.00;1.00
8248;DHT22;4164;49.844;8.830;2023-06-26T14:36:28;30.40;1.00
8248;DHT22;4164;49.844;8.830;2023-06-26T14:38:56;31.20;1.00
8248;DHT22;4164;49.844;8.830;2023-06-26T14:41:22;31.40;1.00
8248;DHT22;4164;49.844;8.830;2023-06-26T14:43:47;30.90;1.00
8248;DHT22;4164;49.844;8.830;2023-06-26T14:46:14;29.60;1.00
8248;DHT22;4164;49.844;8.830;2023-06-26T14:48:39;29.20;1.00
8248;DHT22;4164;49.844;8.830;2023-06-26T14:51:04;29.10;1.00
8248;DHT22;4164;49.844;8.830;2023-06-26T14:53:30;28.70;1.00
8248;DHT22;4164;49.844;8.830;2023-06-26T14:55:56;28.30;1.00
8248;DHT22;4164;49.844;8.830;2023-06-26T14:58:22;28.80;1.00
8248;DHT22;4164;49.844;8.830;2023-06-26T15:00:47;29.50;1.00
8248;DHT22;4164;49.844;8.830;2023-06-26T15:03:13;29.90;1.00
8248;DHT22;4164;49.844;8.830;2023-06-26T15:05:39;29.30;1.00
8248;DHT22;4164;49.844;8.830;2023-06-26T15:08:04;29.20;1.00
8248;DHT22;4164;49.844;8.830;2023-06-26T15:10:30;29.40;1.00
8248;DHT22;4164;49.844;8.830;2023-06-26T15:12:56;29.40;1.00
8248;DHT22;4164;49.844;8.830;2023-06-26T15:15:21;29.20;1.00
8248;DHT22;4164;49.844;8.830;2023-06-26T15:17:47;29.20;1.00
8248;DHT22;4164;49.844;8.830;2023-06-26T15:20:13;29.50;1.00
8248;DHT22;4164;49.844;8.830;2023-06-26T15:22:38;29.60;1.00
8248;DHT22;4164;49.844;8.830;2023-06-26T15:25:06;29.40;1.00
8248;DHT22;4164;49.844;8.830;2023-06-26T15:27:32;29.20;1.00
8248;DHT22;4164;49.844;8.830;2023-06-26T15:29:57;28.80;1.00
8248;DHT22;4164;49.844;8.830;2023-06-26T15:32:23;28.50;1.00
8248;DHT22;4164;49.844;8.830;2023-06-26T15:34:48;28.80;1.00
8248;DHT22;4164;49.844;8.830;2023-06-26T15:37:14;28.90;1.00
8248;DHT22;4164;49.844;8.830;2023-06-26T15:39:39;29.00;1.00
8248;DHT22;4164;49.844;8.830;2023-06-26T15:42:05;29.00;1.00
8248;DHT22;4164;49.844;8.830;2023-06-26T15:44:31;28.40;1.00
8248;DHT22;4164;49.844;8.830;2023-06-26T15:46:58;27.90;1.00
8248;DHT22;4164;49.844;8.830;2023-06-26T15:49:24;27.70;1.00
8248;DHT22;4164;49.844;8.830;2023-06-26T15:51:49;27.90;1.00
8248;DHT22;4164;49.844;8.830;2023-06-26T15:54:15;27.90;1.00
8248;DHT22;4164;49.844;8.830;2023-06-26T15:56:40;27.90;1.00
8248;DHT22;4164;49.844;8.830;2023-06-26T15:59:06;27.90;1.00
8248;DHT22;4164;49.844;8.830;2023-06-26T16:01:31;28.00;1.00
8248;DHT22;4164;49.844;8.830;2023-06-26T16:03:57;28.10;1.00
8248;DHT22;4164;49.844;8.830;2023-06-26T16:06:22;27.90;1.00
8248;DHT22;4164;49.844;8.830;2023-06-26T16:08:48;27.90;1.00
8248;DHT22;4164;49.844;8.830;2023-06-26T16:11:14;27.50;1.00
8248;DHT22;4164;49.844;8.830;2023-06-26T16:13:40;27.10;1.00
8248;DHT22;4164;49.844;8.830;2023-06-26T16:16:05;27.20;1.00
8248;DHT22;4164;49.844;8.830;2023-06-26T16:18:33;27.00;1.00
8248;DHT22;4164;49.844;8.830;2023-06-26T16:20:59;26.90;1.00
8248;DHT22;4164;49.844;8.830;2023-06-26T16:23:24;27.20;1.00
8248;DHT22;4164;49.844;8.830;2023-06-26T16:25:50;27.10;1.00
8248;DHT22;4164;49.844;8.830;2023-06-26T16:28:15;27.20;1.00